CSN667 UHMA-UHMO
Flight info
| Callsign | CSN667 |
|---|---|
| Flight time | N/A |
| Altitude | 8000 |
| Route | TOMRI1W TOMRI G7 BEREM |
| Aircraft | C208/L-SDFGR/C |
Departure
| Time | 2026-05-06 02:11 |
|---|---|
| Airport | Ugolny Yuri Ryktheu Airport (UHMA) |
Arrival
| Time | N/A |
|---|---|
| Airport | Markovo Airport (UHMO) |
| Time | Latitude | Longitude | Altitude | Speed | Heading |
|---|---|---|---|---|---|
| 2026-05-06 02:07 | 64.71658 | 177.73694 | 152 ft | 19 kts | 320° |
| 2026-05-06 02:08 | 64.71778 | 177.73492 | 152 ft | 24 kts | 333° |
| 2026-05-06 02:08 | 64.71952 | 177.73341 | 153 ft | 28 kts | 8° |
| 2026-05-06 02:08 | 64.72127 | 177.73340 | 155 ft | 28 kts | 12° |
| 2026-05-06 02:08 | 64.72340 | 177.73460 | 157 ft | 34 kts | 14° |
| 2026-05-06 02:09 | 64.72575 | 177.73598 | 163 ft | 36 kts | 14° |
| 2026-05-06 02:09 | 64.72830 | 177.73744 | 167 ft | 39 kts | 14° |
| 2026-05-06 02:09 | 64.73092 | 177.73911 | 173 ft | 39 kts | 12° |
| 2026-05-06 02:09 | 64.73359 | 177.74086 | 176 ft | 40 kts | 15° |
| 2026-05-06 02:10 | 64.73634 | 177.74259 | 180 ft | 41 kts | 14° |
| 2026-05-06 02:10 | 64.73875 | 177.74436 | 186 ft | 20 kts | 4° |
| 2026-05-06 02:10 | 64.73885 | 177.74389 | 187 ft | 3 kts | 197° |
| 2026-05-06 02:10 | 64.73810 | 177.74343 | 188 ft | 28 kts | 192° |
| 2026-05-06 02:11 | 64.73426 | 177.74113 | 175 ft | 83 kts | 194° |
| 2026-05-06 02:11 | 64.72814 | 177.73739 | 415 ft | 89 kts | 191° |
| 2026-05-06 02:11 | 64.72217 | 177.73541 | 749 ft | 88 kts | 188° |
| 2026-05-06 02:11 | 64.71601 | 177.73105 | 1038 ft | 101 kts | 194° |
| 2026-05-06 02:12 | 64.70886 | 177.72599 | 1352 ft | 114 kts | 203° |
| 2026-05-06 02:12 | 64.70379 | 177.71083 | 1632 ft | 129 kts | 256° |
| 2026-05-06 02:12 | 64.70581 | 177.69040 | 1913 ft | 137 kts | 304° |
| 2026-05-06 02:12 | 64.71228 | 177.67387 | 2238 ft | 139 kts | 309° |
| 2026-05-06 02:13 | 64.71869 | 177.65692 | 2542 ft | 138 kts | 310° |
| 2026-05-06 02:13 | 64.72496 | 177.64052 | 2888 ft | 135 kts | 309° |
| 2026-05-06 02:13 | 64.73114 | 177.62413 | 3234 ft | 133 kts | 309° |
| 2026-05-06 02:13 | 64.73719 | 177.60795 | 3568 ft | 131 kts | 308° |
| 2026-05-06 02:14 | 64.74317 | 177.59198 | 3908 ft | 130 kts | 308° |
| 2026-05-06 02:14 | 64.74909 | 177.57617 | 4248 ft | 128 kts | 308° |
| 2026-05-06 02:14 | 64.75494 | 177.56051 | 4594 ft | 127 kts | 308° |
| 2026-05-06 02:14 | 64.76068 | 177.54514 | 4936 ft | 126 kts | 308° |
| 2026-05-06 02:15 | 64.76667 | 177.52914 | 5269 ft | 130 kts | 308° |
| 2026-05-06 02:15 | 64.77257 | 177.51333 | 5609 ft | 127 kts | 307° |
| 2026-05-06 02:15 | 64.77833 | 177.49790 | 5948 ft | 124 kts | 307° |
| 2026-05-06 02:15 | 64.78397 | 177.48274 | 6294 ft | 122 kts | 306° |
| 2026-05-06 02:16 | 64.78951 | 177.46788 | 6622 ft | 120 kts | 306° |
| 2026-05-06 02:16 | 64.79495 | 177.45324 | 6935 ft | 118 kts | 306° |
| 2026-05-06 02:16 | 64.80022 | 177.43905 | 7249 ft | 116 kts | 305° |
| 2026-05-06 02:16 | 64.80548 | 177.42490 | 7574 ft | 114 kts | 305° |
| 2026-05-06 02:17 | 64.81066 | 177.41093 | 7897 ft | 112 kts | 305° |
| 2026-05-06 02:17 | 64.81601 | 177.39636 | 8018 ft | 127 kts | 306° |
| 2026-05-06 02:17 | 64.82217 | 177.37987 | 8028 ft | 143 kts | 306° |
| 2026-05-06 02:17 | 64.82902 | 177.36153 | 8025 ft | 154 kts | 307° |
| 2026-05-06 02:18 | 64.83623 | 177.34212 | 8023 ft | 160 kts | 307° |
| 2026-05-06 02:18 | 64.84363 | 177.32221 | 8024 ft | 163 kts | 307° |
| 2026-05-06 02:18 | 64.85112 | 177.30192 | 8026 ft | 165 kts | 307° |
| 2026-05-06 02:18 | 64.85865 | 177.28158 | 8022 ft | 166 kts | 307° |
| 2026-05-06 02:19 | 64.86626 | 177.26090 | 8018 ft | 166 kts | 307° |
| 2026-05-06 02:19 | 64.87380 | 177.24043 | 8017 ft | 167 kts | 307° |
| 2026-05-06 02:19 | 64.88142 | 177.21978 | 8021 ft | 167 kts | 307° |
| 2026-05-06 02:19 | 64.88911 | 177.19890 | 8011 ft | 168 kts | 307° |
| 2026-05-06 02:20 | 64.90437 | 177.15721 | 8010 ft | 168 kts | 307° |
| 2026-05-06 02:20 | 64.91201 | 177.13638 | 8013 ft | 168 kts | 307° |
| 2026-05-06 02:20 | 64.91960 | 177.11574 | 8008 ft | 168 kts | 307° |
| 2026-05-06 02:21 | 64.92726 | 177.09486 | 8006 ft | 168 kts | 307° |
| 2026-05-06 02:21 | 64.93490 | 177.07393 | 8004 ft | 168 kts | 307° |
| 2026-05-06 02:21 | 64.94251 | 177.05305 | 8003 ft | 168 kts | 307° |
| 2026-05-06 02:21 | 64.95005 | 177.03243 | 8004 ft | 167 kts | 307° |
| 2026-05-06 02:22 | 64.95768 | 177.01151 | 8008 ft | 168 kts | 307° |
| 2026-05-06 02:22 | 64.96532 | 176.99053 | 8004 ft | 168 kts | 307° |
| 2026-05-06 02:22 | 64.97295 | 176.96965 | 8007 ft | 168 kts | 307° |
| 2026-05-06 02:22 | 64.98060 | 176.94847 | 8002 ft | 169 kts | 306° |
| 2026-05-06 02:23 | 64.98825 | 176.92727 | 8011 ft | 170 kts | 307° |
| 2026-05-06 02:23 | 64.99587 | 176.90632 | 8009 ft | 170 kts | 307° |
| 2026-05-06 02:23 | 65.00363 | 176.88507 | 8005 ft | 170 kts | 307° |
| 2026-05-06 02:23 | 65.01136 | 176.86385 | 8002 ft | 169 kts | 307° |
| 2026-05-06 02:24 | 65.01896 | 176.84271 | 8004 ft | 168 kts | 306° |
| 2026-05-06 02:24 | 65.02655 | 176.82163 | 8004 ft | 168 kts | 307° |
| 2026-05-06 02:24 | 65.03416 | 176.80056 | 8000 ft | 168 kts | 307° |
| 2026-05-06 02:24 | 65.04166 | 176.77979 | 8000 ft | 168 kts | 306° |
| 2026-05-06 02:25 | 65.04920 | 176.75881 | 8000 ft | 168 kts | 306° |
| 2026-05-06 02:25 | 65.05686 | 176.73755 | 8001 ft | 169 kts | 306° |
| 2026-05-06 02:25 | 65.06454 | 176.71638 | 8003 ft | 169 kts | 307° |
| 2026-05-06 02:25 | 65.07216 | 176.69509 | 8000 ft | 169 kts | 306° |
| 2026-05-06 02:26 | 65.07720 | 176.68101 | 8001 ft | 168 kts | 306° |
| 2026-05-06 02:26 | 65.08730 | 176.65294 | 8001 ft | 168 kts | 307° |
| 2026-05-06 02:26 | 65.09205 | 176.63993 | 7989 ft | 140 kts | 306° |
| 2026-05-06 02:26 | 65.09766 | 176.62440 | 7977 ft | 110 kts | 304° |
| 2026-05-06 02:27 | 65.10347 | 176.60805 | 7955 ft | 88 kts | 303° |
| 2026-05-06 02:27 | 65.10606 | 176.60075 | 7887 ft | 84 kts | 302° |
| 2026-05-06 02:27 | 65.10969 | 176.59060 | 7807 ft | 77 kts | 302° |
| 2026-05-06 02:27 | 65.11299 | 176.58138 | 7685 ft | 72 kts | 301° |
| 2026-05-06 02:28 | 65.11617 | 176.57252 | 7564 ft | 70 kts | 301° |
| 2026-05-06 02:28 | 65.11930 | 176.56366 | 7402 ft | 71 kts | 301° |
| 2026-05-06 02:28 | 65.12241 | 176.55486 | 7246 ft | 70 kts | 301° |
| 2026-05-06 02:28 | 65.12559 | 176.54605 | 7102 ft | 69 kts | 301° |
| 2026-05-06 02:29 | 65.12873 | 176.53721 | 6937 ft | 70 kts | 302° |
| 2026-05-06 02:29 | 65.13187 | 176.52840 | 6791 ft | 70 kts | 302° |
| 2026-05-06 02:29 | 65.13501 | 176.51956 | 6684 ft | 70 kts | 302° |
| 2026-05-06 02:29 | 65.13818 | 176.51082 | 6552 ft | 70 kts | 301° |
| 2026-05-06 02:30 | 65.14134 | 176.50184 | 6455 ft | 69 kts | 302° |
| 2026-05-06 02:30 | 65.14442 | 176.49304 | 6269 ft | 74 kts | 304° |
| 2026-05-06 02:30 | 65.14801 | 176.48263 | 6366 ft | 88 kts | 302° |
| 2026-05-06 02:30 | 65.15151 | 176.47007 | 6628 ft | 96 kts | 291° |
| 2026-05-06 02:31 | 65.15440 | 176.45478 | 6861 ft | 107 kts | 288° |
| 2026-05-06 02:31 | 65.15696 | 176.43750 | 7047 ft | 118 kts | 282° |
| 2026-05-06 02:31 | 65.16100 | 176.41842 | 7038 ft | 143 kts | 313° |
| 2026-05-06 02:31 | 65.16998 | 176.40877 | 7461 ft | 130 kts | 331° |
| 2026-05-06 02:32 | 65.17714 | 176.39831 | 7874 ft | 117 kts | 307° |
| 2026-05-06 02:32 | 65.18262 | 176.38361 | 8019 ft | 129 kts | 307° |
| 2026-05-06 02:32 | 65.18903 | 176.36653 | 8018 ft | 146 kts | 306° |
| 2026-05-06 02:32 | 65.19594 | 176.34750 | 8016 ft | 156 kts | 306° |
| 2026-05-06 02:33 | 65.20308 | 176.32742 | 8013 ft | 162 kts | 306° |
| 2026-05-06 02:33 | 65.20790 | 176.31376 | 8014 ft | 164 kts | 306° |
| 2026-05-06 02:34 | 65.23054 | 176.24043 | 8013 ft | 164 kts | 281° |
| 2026-05-06 02:34 | 65.23065 | 176.21343 | 8014 ft | 165 kts | 258° |
| 2026-05-06 02:34 | 65.22728 | 176.18733 | 8014 ft | 165 kts | 253° |
| 2026-05-06 02:34 | 65.22398 | 176.16115 | 8009 ft | 165 kts | 254° |
| 2026-05-06 02:35 | 65.22072 | 176.13520 | 8006 ft | 165 kts | 254° |
| 2026-05-06 02:35 | 65.21738 | 176.10896 | 8006 ft | 165 kts | 254° |